Time;durP1;ratioP1;P1;durP2;ratioP2;P2;SDS_P1;SDS_P2;PMS_P1;PMS_P2;Temp;Humidity;BMP_temperature;BMP_pressure;BME280_temperature;BME280_humidity;BME280_pressure;Samples;Min_cycle;Max_cycle;Signal;HPM_P1;HPM_P2
2023/06/30 00:02:03;;;;;;;6.70;6.37;;;21.20;64.70;;;;;;6225707;28;20278;-81
2023/06/30 00:05:07;;;;;;;6.63;6.30;;;21.20;64.80;;;;;;6230610;28;20243;-79
2023/06/30 00:08:10;;;;;;;6.40;6.10;;;21.30;64.90;;;;;;6223991;28;20314;-80
2023/06/30 00:11:13;;;;;;;7.50;6.93;;;21.30;65.00;;;;;;6234005;28;20234;-81
2023/06/30 00:14:17;;;;;;;7.40;6.90;;;21.30;65.00;;;;;;6241000;28;20281;-81
2023/06/30 00:17:20;;;;;;;10.03;9.20;;;21.30;65.10;;;;;;6228495;28;20652;-79
2023/06/30 00:20:25;;;;;;;10.23;9.43;;;21.30;65.10;;;;;;6224599;28;20735;-80
2023/06/30 00:23:28;;;;;;;11.17;10.17;;;21.30;65.00;;;;;;6226929;28;20242;-81
2023/06/30 00:26:32;;;;;;;11.13;10.23;;;21.40;65.20;;;;;;6233534;28;20322;-79
2023/06/30 00:29:36;;;;;;;11.47;10.47;;;21.30;65.20;;;;;;6213276;28;20895;-80
2023/06/30 00:32:39;;;;;;;16.30;13.20;;;21.30;65.30;;;;;;6230949;28;20239;-81
2023/06/30 00:35:42;;;;;;;14.87;13.47;;;21.40;65.40;;;;;;6231611;28;20234;-81
2023/06/30 00:38:46;;;;;;;16.50;14.37;;;21.40;65.60;;;;;;6236491;28;20727;-81
2023/06/30 00:41:49;;;;;;;17.77;15.67;;;21.40;66.10;;;;;;6232499;28;20246;-79
2023/06/30 00:44:54;;;;;;;23.53;18.20;;;21.30;67.10;;;;;;6220887;28;20296;-81
2023/06/30 00:47:57;;;;;;;22.00;17.97;;;21.20;67.70;;;;;;6223026;28;20235;-81
2023/06/30 00:51:00;;;;;;;23.23;18.03;;;21.10;68.30;;;;;;6215764;28;20289;-80
2023/06/30 00:54:03;;;;;;;22.50;18.40;;;21.00;69.00;;;;;;6231031;28;20266;-81
2023/06/30 00:57:07;;;;;;;21.40;17.50;;;20.90;69.60;;;;;;6229871;28;20238;-80
2023/06/30 01:00:13;;;;;;;19.03;17.07;;;20.80;69.80;;;;;;6238142;28;20238;-81
2023/06/30 01:03:20;;;;;;;20.10;16.30;;;20.80;70.40;;;;;;6231047;28;20298;-81
2023/06/30 01:06:31;;;;;;;19.03;17.03;;;20.60;70.80;;;;;;6231682;28;20604;-81
2023/06/30 01:09:39;;;;;;;19.90;16.20;;;20.60;70.80;;;;;;6235538;28;20265;-81
2023/06/30 01:12:44;;;;;;;18.77;16.30;;;20.50;71.30;;;;;;6242679;28;20599;-81
2023/06/30 01:15:49;;;;;;;21.90;17.10;;;20.40;71.60;;;;;;6231254;28;20242;-82
2023/06/30 01:18:55;;;;;;;19.63;17.13;;;20.30;71.80;;;;;;6234612;28;20257;-81
2023/06/30 01:22:05;;;;;;;19.63;17.30;;;20.10;72.50;;;;;;6262912;28;20238;-81
2023/06/30 01:25:12;;;;;;;18.67;16.77;;;20.00;72.80;;;;;;6263810;28;20230;-81
2023/06/30 01:28:17;;;;;;;21.53;17.33;;;20.00;72.80;;;;;;6268888;28;20241;-80
2023/06/30 01:31:24;;;;;;;20.13;17.70;;;19.90;73.10;;;;;;6272164;28;20242;-81
2023/06/30 01:34:28;;;;;;;19.97;17.83;;;19.80;73.10;;;;;;6263151;28;20293;-83
2023/06/30 01:37:31;;;;;;;21.80;18.23;;;19.70;73.40;;;;;;6244929;28;20230;-81
2023/06/30 01:40:34;;;;;;;20.10;17.97;;;19.60;73.80;;;;;;6246936;28;20235;-82
2023/06/30 01:43:38;;;;;;;22.80;18.60;;;19.50;73.90;;;;;;6243359;28;20321;-82
2023/06/30 01:46:43;;;;;;;20.83;17.47;;;19.50;74.00;;;;;;6257909;28;20242;-79
2023/06/30 01:49:47;;;;;;;21.20;18.90;;;19.40;74.30;;;;;;6268461;28;20230;-84
2023/06/30 01:52:50;;;;;;;20.23;18.07;;;19.40;74.70;;;;;;6272969;28;20791;-82
2023/06/30 01:55:55;;;;;;;21.07;17.60;;;19.40;75.30;;;;;;6267599;28;20240;-79
2023/06/30 01:58:58;;;;;;;19.27;17.30;;;19.40;75.20;;;;;;6274307;28;20261;-81
2023/06/30 02:02:02;;;;;;;21.40;18.77;;;19.30;75.30;;;;;;6269763;28;20249;-78
2023/06/30 02:05:09;;;;;;;19.73;17.50;;;19.30;75.50;;;;;;6257056;28;20253;-81
2023/06/30 02:08:12;;;;;;;21.00;18.90;;;19.40;75.60;;;;;;6267968;28;20241;-80
2023/06/30 02:11:16;;;;;;;21.80;19.20;;;19.30;75.90;;;;;;6266870;28;20245;-80
2023/06/30 02:14:18;;;;;;;24.90;20.73;;;19.30;76.00;;;;;;6267146;28;20243;-77
2023/06/30 02:17:33;;;;;;;21.90;19.03;;;19.40;76.00;;;;;;6270333;28;20792;-78
2023/06/30 02:20:36;;;;;;;20.23;17.80;;;19.30;76.10;;;;;;6268322;28;20333;-81
2023/06/30 02:23:39;;;;;;;21.23;19.03;;;19.30;76.00;;;;;;6266483;28;20375;-80
2023/06/30 02:26:42;;;;;;;22.07;18.43;;;19.30;76.00;;;;;;6260183;28;20311;-79
2023/06/30 02:29:46;;;;;;;20.23;18.23;;;19.30;76.00;;;;;;6233965;28;20917;-80
2023/06/30 02:32:51;;;;;;;20.63;18.30;;;19.30;75.90;;;;;;6243778;28;20242;-80
2023/06/30 02:35:55;;;;;;;21.73;18.13;;;19.30;76.10;;;;;;6241932;28;20234;-81
2023/06/30 02:38:58;;;;;;;21.93;19.53;;;19.30;76.00;;;;;;6243804;28;20334;-80
2023/06/30 02:42:02;;;;;;;19.33;17.40;;;19.30;76.00;;;;;;6261433;28;20805;-81
2023/06/30 02:45:07;;;;;;;21.13;18.93;;;19.30;75.90;;;;;;6254374;28;20229;-81
2023/06/30 02:48:11;;;;;;;20.43;18.23;;;19.30;75.80;;;;;;6263905;28;20242;-79
2023/06/30 02:51:14;;;;;;;19.27;17.27;;;19.30;75.80;;;;;;6264370;28;20246;-80
2023/06/30 02:54:18;;;;;;;19.47;17.40;;;19.20;75.80;;;;;;6265668;28;20317;-81
2023/06/30 02:57:21;;;;;;;20.50;17.57;;;19.30;75.80;;;;;;6266347;28;20257;-81
2023/06/30 03:00:24;;;;;;;20.80;18.70;;;19.30;75.80;;;;;;6265065;28;20230;-79
2023/06/30 03:03:29;;;;;;;16.70;15.10;;;19.30;75.80;;;;;;6237402;28;20254;-81
2023/06/30 03:06:32;;;;;;;17.83;16.17;;;19.30;75.70;;;;;;6233653;28;20717;-78
2023/06/30 03:09:36;;;;;;;19.13;16.70;;;19.30;75.70;;;;;;6252534;28;20313;-80
2023/06/30 03:12:39;;;;;;;20.03;18.10;;;19.20;75.70;;;;;;6251879;28;20757;-78
2023/06/30 03:15:42;;;;;;;18.50;16.47;;;19.20;75.80;;;;;;6224386;28;20240;-81
2023/06/30 03:18:47;;;;;;;21.60;19.30;;;19.20;75.80;;;;;;6238089;28;20273;-79
2023/06/30 03:21:50;;;;;;;21.47;19.17;;;19.20;75.80;;;;;;6240614;28;20286;-79
2023/06/30 03:24:56;;;;;;;18.30;16.33;;;19.20;75.90;;;;;;6239859;28;20234;-82
2023/06/30 03:27:59;;;;;;;19.70;16.77;;;19.20;76.00;;;;;;6238715;28;20255;-80
2023/06/30 03:31:02;;;;;;;19.37;17.33;;;19.30;76.00;;;;;;6232418;28;20238;-80
2023/06/30 03:34:10;;;;;;;19.23;17.17;;;19.30;76.10;;;;;;6226762;28;20227;-78
2023/06/30 03:37:13;;;;;;;19.90;16.67;;;19.30;76.10;;;;;;6219715;28;20239;-79
2023/06/30 03:40:16;;;;;;;18.67;16.63;;;19.30;76.00;;;;;;6232336;28;20244;-79
2023/06/30 03:43:21;;;;;;;19.80;16.90;;;19.30;75.90;;;;;;6239324;28;20830;-80
2023/06/30 03:46:25;;;;;;;18.10;16.40;;;19.30;75.80;;;;;;6231380;28;20334;-79
2023/06/30 03:49:30;;;;;;;18.07;16.27;;;19.30;75.80;;;;;;6233015;28;20239;-80
2023/06/30 03:52:33;;;;;;;19.83;17.73;;;19.30;75.90;;;;;;6217985;28;20235;-79
2023/06/30 03:55:36;;;;;;;17.77;15.97;;;19.30;75.80;;;;;;6226481;28;20651;-79
2023/06/30 03:58:39;;;;;;;17.07;15.30;;;19.30;75.90;;;;;;6240181;28;20344;-78
2023/06/30 04:01:42;;;;;;;19.13;17.13;;;19.30;75.90;;;;;;6223334;28;20242;-77
2023/06/30 04:04:47;;;;;;;18.67;16.80;;;19.40;75.90;;;;;;6224198;28;20314;-79
2023/06/30 04:07:50;;;;;;;20.03;17.87;;;19.40;75.80;;;;;;6236024;28;20725;-79
2023/06/30 04:10:53;;;;;;;19.23;17.10;;;19.40;75.90;;;;;;6231557;28;20230;-78
2023/06/30 04:13:59;;;;;;;19.27;17.23;;;19.40;75.80;;;;;;6240782;28;20239;-79
2023/06/30 04:17:02;;;;;;;20.73;17.70;;;19.50;75.80;;;;;;6238163;28;20271;-78
2023/06/30 04:20:09;;;;;;;18.60;16.73;;;19.40;75.80;;;;;;6221973;28;20247;-77
2023/06/30 04:23:13;;;;;;;19.50;17.53;;;19.50;75.90;;;;;;6219879;28;20297;-78
2023/06/30 04:26:16;;;;;;;20.53;18.40;;;19.50;75.90;;;;;;6229729;28;20262;-81
2023/06/30 04:29:20;;;;;;;17.83;16.03;;;19.50;75.80;;;;;;6236055;28;20238;-80
2023/06/30 04:32:23;;;;;;;19.40;17.37;;;19.50;75.70;;;;;;6231985;28;20242;-78
2023/06/30 04:35:27;;;;;;;22.33;18.40;;;19.60;75.40;;;;;;6225344;28;20257;-77
2023/06/30 04:38:31;;;;;;;19.50;17.40;;;19.70;75.20;;;;;;6237516;28;20246;-77
2023/06/30 04:41:34;;;;;;;19.70;16.97;;;19.80;75.00;;;;;;6234457;28;20237;-79
2023/06/30 04:44:37;;;;;;;17.60;15.80;;;19.90;74.70;;;;;;6229194;28;20227;-78
2023/06/30 04:47:40;;;;;;;18.70;16.80;;;20.00;74.40;;;;;;6231597;28;20728;-79
2023/06/30 04:50:45;;;;;;;17.40;15.60;;;20.10;74.40;;;;;;6224626;28;20234;-79
2023/06/30 04:53:48;;;;;;;17.23;15.43;;;20.20;74.20;;;;;;6229588;28;20377;-77
2023/06/30 04:56:51;;;;;;;20.43;18.30;;;20.30;73.90;;;;;;6235253;28;20239;-79
2023/06/30 04:59:55;;;;;;;18.67;16.67;;;20.50;73.60;;;;;;6229765;28;20756;-78
2023/06/30 05:02:58;;;;;;;20.97;18.87;;;20.60;73.40;;;;;;6233236;28;20238;-77
2023/06/30 05:06:02;;;;;;;19.33;17.33;;;20.60;72.80;;;;;;6233992;28;20246;-78
2023/06/30 05:09:06;;;;;;;19.37;17.43;;;20.70;72.60;;;;;;6231640;28;20746;-79
2023/06/30 05:12:09;;;;;;;16.97;15.33;;;20.70;72.40;;;;;;6231694;28;20317;-81
2023/06/30 05:15:12;;;;;;;17.17;15.57;;;20.90;72.20;;;;;;6240855;28;20227;-82
2023/06/30 05:18:15;;;;;;;17.37;15.57;;;21.00;71.50;;;;;;6231193;28;20238;-80
2023/06/30 05:21:21;;;;;;;17.07;15.37;;;21.30;70.90;;;;;;6228338;28;20653;-78
2023/06/30 05:24:24;;;;;;;16.53;14.90;;;21.50;70.60;;;;;;6234268;28;20300;-77
2023/06/30 05:27:27;;;;;;;17.20;15.60;;;21.60;69.90;;;;;;6229290;28;20246;-80
2023/06/30 05:30:30;;;;;;;16.70;15.10;;;21.70;69.70;;;;;;6230327;28;20299;-80
2023/06/30 05:33:33;;;;;;;19.30;17.30;;;21.90;69.70;;;;;;6238874;28;20608;-82
2023/06/30 05:36:38;;;;;;;18.63;16.63;;;22.00;68.60;;;;;;6236122;28;20230;-81
2023/06/30 05:39:41;;;;;;;19.20;16.33;;;22.30;68.20;;;;;;6232449;28;20239;-82
2023/06/30 05:42:44;;;;;;;19.37;17.03;;;22.50;67.70;;;;;;6223802;28;20241;-81
2023/06/30 05:45:49;;;;;;;17.33;15.73;;;22.50;67.20;;;;;;6234914;28;20257;-80
2023/06/30 05:48:52;;;;;;;18.60;16.70;;;22.60;66.70;;;;;;6225877;28;20311;-79
2023/06/30 05:51:57;;;;;;;16.53;14.97;;;22.80;66.70;;;;;;6228087;28;20234;-79
2023/06/30 05:55:01;;;;;;;16.57;14.87;;;23.10;66.50;;;;;;6242155;28;20324;-81
2023/06/30 05:58:04;;;;;;;18.30;16.37;;;23.40;66.60;;;;;;6226852;28;20235;-80
2023/06/30 06:01:07;;;;;;;18.70;16.90;;;23.60;65.20;;;;;;6238605;28;20238;-77
2023/06/30 06:04:11;;;;;;;19.70;15.80;;;23.80;64.40;;;;;;6231270;28;20235;-80
2023/06/30 06:07:16;;;;;;;19.07;16.40;;;24.00;64.20;;;;;;6230641;28;20239;-80
2023/06/30 06:10:20;;;;;;;17.67;15.97;;;24.00;63.70;;;;;;6239367;28;20258;-78
2023/06/30 06:13:33;;;;;;;17.23;15.47;;;23.70;63.20;;;;;;6243192;28;20258;-82
2023/06/30 06:16:36;;;;;;;17.43;15.80;;;23.50;63.10;;;;;;6232321;28;20717;-78
2023/06/30 06:19:39;;;;;;;17.03;15.40;;;23.30;63.20;;;;;;6234012;28;20339;-80
2023/06/30 06:22:43;;;;;;;18.73;16.07;;;23.20;63.00;;;;;;6235630;28;20246;-79
2023/06/30 06:25:47;;;;;;;15.87;14.40;;;23.10;64.10;;;;;;6236442;28;20235;-79
2023/06/30 06:28:50;;;;;;;16.40;14.80;;;23.10;64.10;;;;;;6235921;28;20265;-78
2023/06/30 06:31:54;;;;;;;17.30;15.63;;;23.10;62.90;;;;;;6231213;28;20703;-79
2023/06/30 06:34:57;;;;;;;16.87;15.20;;;23.10;62.90;;;;;;6229628;28;20242;-78
2023/06/30 06:38:02;;;;;;;17.50;15.80;;;23.00;62.50;;;;;;6240939;28;20234;-79
2023/06/30 06:41:05;;;;;;;17.80;15.33;;;23.00;62.90;;;;;;6236654;28;20369;-77
2023/06/30 06:44:08;;;;;;;17.33;15.70;;;23.00;63.40;;;;;;6240109;28;20748;-80
2023/06/30 06:47:48;;;;;;;18.93;16.93;;;22.90;63.50;;;;;;6227493;28;20409;-82
2023/06/30 06:50:53;;;;;;;19.07;17.07;;;23.10;63.40;;;;;;6239812;28;20738;-81
2023/06/30 06:53:57;;;;;;;18.27;16.47;;;23.10;63.20;;;;;;6226265;28;20228;-81
2023/06/30 06:57:03;;;;;;;19.03;17.17;;;23.10;63.00;;;;;;6232186;28;20241;-80
2023/06/30 07:00:07;;;;;;;21.00;17.73;;;23.00;62.80;;;;;;6222515;28;20255;-81
2023/06/30 07:03:10;;;;;;;19.53;17.47;;;22.70;63.60;;;;;;6238491;28;20263;-80
2023/06/30 07:06:13;;;;;;;19.43;17.33;;;22.70;64.30;;;;;;6227056;28;20460;-78
2023/06/30 07:09:18;;;;;;;19.63;16.77;;;22.70;64.60;;;;;;6243451;28;20448;-81
2023/06/30 07:12:21;;;;;;;19.23;17.33;;;22.70;64.70;;;;;;6229015;28;20270;-81
2023/06/30 07:15:25;;;;;;;19.03;16.87;;;22.70;64.40;;;;;;6235120;28;20396;-85
2023/06/30 07:18:29;;;;;;;19.23;16.80;;;22.60;64.20;;;;;;6246085;28;20329;-81
2023/06/30 07:21:33;;;;;;;16.23;14.63;;;22.50;64.00;;;;;;6239260;28;20882;-83
2023/06/30 07:24:37;;;;;;;17.17;15.17;;;22.30;63.10;;;;;;6240897;28;20234;-84
2023/06/30 07:27:52;;;;;;;19.57;15.00;;;22.20;63.20;;;;;;6260990;28;20240;-86
2023/06/30 07:30:56;;;;;;;16.33;14.73;;;22.20;63.50;;;;;;6246934;28;20266;-78
2023/06/30 07:34:01;;;;;;;17.10;14.13;;;22.10;63.60;;;;;;6220037;28;20358;-78
2023/06/30 07:37:04;;;;;;;15.13;13.63;;;22.20;64.00;;;;;;6230273;28;20746;-80
2023/06/30 07:40:13;;;;;;;16.47;14.87;;;22.30;63.30;;;;;;6235590;28;20266;-78
2023/06/30 07:43:19;;;;;;;14.93;13.43;;;22.40;63.00;;;;;;6236171;28;20797;-79
2023/06/30 07:46:22;;;;;;;16.53;14.93;;;22.50;63.00;;;;;;6260644;28;20735;-79
2023/06/30 07:49:26;;;;;;;16.43;14.83;;;22.40;63.50;;;;;;6251705;28;20269;-79
2023/06/30 07:52:29;;;;;;;17.00;15.30;;;22.50;63.70;;;;;;6262085;28;20372;-79
2023/06/30 07:55:33;;;;;;;18.43;16.37;;;22.50;63.30;;;;;;6261921;28;20292;-79
2023/06/30 07:58:37;;;;;;;17.27;15.43;;;22.50;63.70;;;;;;6263203;28;20270;-79
2023/06/30 08:01:40;;;;;;;16.40;14.77;;;22.30;64.30;;;;;;6235361;28;20231;-78
2023/06/30 08:04:43;;;;;;;17.97;16.07;;;22.20;65.10;;;;;;6226814;28;20581;-78
2023/06/30 08:07:47;;;;;;;19.20;16.27;;;22.30;65.00;;;;;;6224864;28;20757;-78
2023/06/30 08:10:55;;;;;;;20.57;17.00;;;22.20;65.10;;;;;;6229287;28;20250;-79
2023/06/30 08:14:00;;;;;;;17.50;15.70;;;22.20;65.50;;;;;;6219144;28;20263;-79
2023/06/30 08:17:03;;;;;;;16.83;15.03;;;22.10;65.90;;;;;;6232502;28;20258;-77
2023/06/30 08:20:07;;;;;;;17.70;15.83;;;22.20;66.10;;;;;;6233162;28;20265;-79
2023/06/30 08:23:12;;;;;;;17.03;15.23;;;22.30;66.10;;;;;;6247205;28;20243;-78
2023/06/30 08:26:17;;;;;;;16.63;14.93;;;22.50;65.10;;;;;;6238439;28;20238;-80
2023/06/30 08:29:20;;;;;;;18.43;16.23;;;22.60;64.80;;;;;;6222143;28;20251;-79
2023/06/30 08:32:23;;;;;;;17.20;14.43;;;22.80;64.40;;;;;;6219650;28;20243;-77
2023/06/30 08:35:26;;;;;;;18.10;15.23;;;22.90;64.90;;;;;;6234729;28;20249;-77
2023/06/30 08:38:29;;;;;;;17.13;15.23;;;23.00;63.90;;;;;;6228876;28;20765;-79
2023/06/30 08:41:37;;;;;;;17.27;15.40;;;23.10;63.70;;;;;;6232430;28;20703;-79
2023/06/30 08:44:43;;;;;;;16.80;15.07;;;23.10;63.40;;;;;;6221841;28;20277;-79
2023/06/30 08:47:46;;;;;;;19.30;16.87;;;23.20;63.40;;;;;;6229812;28;20241;-77
2023/06/30 08:50:52;;;;;;;20.77;17.40;;;23.00;63.30;;;;;;6236972;28;20698;-78
2023/06/30 08:53:56;;;;;;;20.40;16.67;;;22.80;64.00;;;;;;6229944;28;20249;-79
2023/06/30 08:57:03;;;;;;;18.80;16.47;;;22.80;64.30;;;;;;6228515;28;20344;-79
2023/06/30 09:00:08;;;;;;;17.73;15.93;;;22.70;64.80;;;;;;6209662;28;20227;-77
2023/06/30 09:03:11;;;;;;;16.70;15.10;;;22.80;64.80;;;;;;6232153;28;20246;-78
2023/06/30 09:06:15;;;;;;;17.63;15.73;;;23.10;64.10;;;;;;6224693;28;20246;-78
2023/06/30 09:09:25;;;;;;;18.70;16.70;;;23.40;63.70;;;;;;6217938;28;20245;-80
2023/06/30 09:12:30;;;;;;;20.77;15.50;;;23.50;62.90;;;;;;6226820;28;20239;-80
2023/06/30 09:15:34;;;;;;;17.03;15.23;;;23.60;63.00;;;;;;6229964;28;20298;-80
2023/06/30 09:18:38;;;;;;;18.67;16.40;;;23.80;63.00;;;;;;6229883;28;20296;-80
2023/06/30 09:21:41;;;;;;;20.90;16.87;;;24.00;62.80;;;;;;6227015;28;20734;-81
2023/06/30 09:24:44;;;;;;;20.83;18.70;;;24.00;62.80;;;;;;6229929;28;20243;-81
2023/06/30 09:27:51;;;;;;;17.50;15.70;;;24.00;62.80;;;;;;6223300;28;20239;-80
2023/06/30 09:31:01;;;;;;;19.40;16.20;;;24.00;62.60;;;;;;6229551;28;20282;-80
2023/06/30 09:34:10;;;;;;;19.20;16.93;;;23.80;63.00;;;;;;6249512;28;20226;-81
2023/06/30 09:37:16;;;;;;;19.13;16.80;;;23.70;63.10;;;;;;6262179;28;20271;-79
2023/06/30 09:40:25;;;;;;;23.77;18.93;;;23.50;63.50;;;;;;6247414;28;20242;-79
2023/06/30 09:43:30;;;;;;;20.97;18.70;;;23.30;64.00;;;;;;6244116;28;20242;-83
2023/06/30 09:46:33;;;;;;;20.50;18.37;;;23.20;64.30;;;;;;6252586;28;20253;-80
2023/06/30 09:49:37;;;;;;;21.47;19.10;;;23.10;65.70;;;;;;6257554;28;20238;-81
2023/06/30 09:52:41;;;;;;;19.40;17.50;;;23.00;66.20;;;;;;6239790;28;20288;-81
2023/06/30 09:55:49;;;;;;;22.30;19.47;;;22.90;67.10;;;;;;6229660;28;20575;-80
2023/06/30 09:58:57;;;;;;;24.43;21.03;;;22.90;67.20;;;;;;6219623;28;20747;-81
2023/06/30 10:02:00;;;;;;;25.10;22.40;;;23.00;66.80;;;;;;6232354;28;20312;-81
2023/06/30 10:05:04;;;;;;;26.60;22.00;;;23.00;67.00;;;;;;6232134;28;20227;-82
2023/06/30 10:08:08;;;;;;;24.87;22.17;;;22.80;67.20;;;;;;6224775;28;20312;-81
2023/06/30 10:11:11;;;;;;;25.20;22.50;;;22.70;67.40;;;;;;6230406;28;20241;-81
2023/06/30 10:14:17;;;;;;;26.47;23.47;;;22.60;67.50;;;;;;6233855;28;20321;-82
2023/06/30 10:17:20;;;;;;;24.07;21.57;;;22.50;67.40;;;;;;6230070;28;20243;-80
2023/06/30 10:20:24;;;;;;;28.03;21.80;;;22.50;68.00;;;;;;6232861;28;20241;-81
2023/06/30 10:23:46;;;;;;;26.20;22.87;;;22.40;68.60;;;;;;6235003;28;20301;-82
2023/06/30 10:26:51;;;;;;;26.67;21.67;;;22.20;68.50;;;;;;6235391;28;20231;-80
2023/06/30 10:29:56;;;;;;;28.77;22.37;;;22.30;68.70;;;;;;6230707;28;20257;-79
2023/06/30 10:32:59;;;;;;;29.23;24.17;;;22.50;68.50;;;;;;6235474;28;20235;-79
2023/06/30 10:36:03;;;;;;;30.87;24.80;;;22.50;68.00;;;;;;6238029;28;20249;-80
2023/06/30 10:39:06;;;;;;;29.70;24.97;;;22.50;68.20;;;;;;6229138;28;20789;-80
2023/06/30 10:42:12;;;;;;;28.67;24.43;;;22.50;68.10;;;;;;6221687;28;20267;-80
2023/06/30 10:45:17;;;;;;;33.90;26.27;;;22.50;68.10;;;;;;6226015;28;20963;-80
2023/06/30 10:48:20;;;;;;;34.00;27.60;;;22.50;68.10;;;;;;6261866;28;20245;-80
2023/06/30 10:51:23;;;;;;;30.53;23.93;;;22.40;68.10;;;;;;6248857;28;20852;-83
2023/06/30 10:54:27;;;;;;;28.27;22.87;;;22.20;68.60;;;;;;6237830;28;20328;-80
2023/06/30 10:57:36;;;;;;;26.03;21.33;;;22.10;68.80;;;;;;6260418;28;20234;-83
2023/06/30 11:01:06;;;;;;;26.47;22.57;;;21.90;69.10;;;;;;6257116;28;20242;-79
2023/06/30 11:04:12;;;;;;;22.33;19.47;;;21.60;69.30;;;;;;6241699;28;20313;-80
2023/06/30 11:07:23;;;;;;;27.03;22.03;;;21.50;69.50;;;;;;6228423;28;20285;-79
2023/06/30 11:10:37;;;;;;;23.50;19.80;;;21.50;68.70;;;;;;6226159;28;20370;-81
2023/06/30 11:13:43;;;;;;;24.40;20.77;;;21.40;68.90;;;;;;6234758;28;20327;-79
2023/06/30 11:17:05;;;;;;;27.30;22.30;;;21.30;67.60;;;;;;6235047;28;20246;-80
2023/06/30 11:20:13;;;;;;;25.80;22.47;;;21.10;67.10;;;;;;6230879;28;20326;-81
2023/06/30 11:23:18;;;;;;;28.70;23.10;;;21.00;67.60;;;;;;6236289;28;20855;-80
2023/06/30 11:26:21;;;;;;;24.70;21.20;;;21.00;67.60;;;;;;6223388;28;20804;-80
2023/06/30 11:29:25;;;;;;;28.73;23.80;;;20.90;67.90;;;;;;6221410;28;20296;-80
2023/06/30 11:32:32;;;;;;;29.23;24.00;;;20.90;68.40;;;;;;6249948;28;20248;-79
2023/06/30 11:35:37;;;;;;;23.33;20.83;;;21.00;69.40;;;;;;6264797;28;20263;-78
2023/06/30 11:38:41;;;;;;;38.63;28.43;;;21.00;69.30;;;;;;6265721;28;20237;-81
2023/06/30 11:41:45;;;;;;;31.10;24.87;;;21.00;69.30;;;;;;6258962;28;20327;-81
2023/06/30 11:44:49;;;;;;;25.17;21.47;;;20.90;69.50;;;;;;6257844;28;20238;-79
2023/06/30 11:47:56;;;;;;;27.23;22.63;;;20.80;69.80;;;;;;6262490;28;20615;-81
2023/06/30 11:50:59;;;;;;;25.30;21.30;;;20.90;69.80;;;;;;6258743;28;20246;-80
2023/06/30 11:54:03;;;;;;;26.53;22.20;;;20.90;70.00;;;;;;6263192;28;20238;-82
2023/06/30 11:57:07;;;;;;;23.83;20.67;;;21.00;70.40;;;;;;6265223;28;20593;-81
2023/06/30 12:00:14;;;;;;;28.87;23.67;;;21.10;70.80;;;;;;6263186;28;20245;-82
2023/06/30 12:03:19;;;;;;;27.83;22.37;;;21.40;71.30;;;;;;6264622;28;20246;-80
2023/06/30 12:06:25;;;;;;;27.07;21.73;;;21.70;71.60;;;;;;6251686;28;20884;-82
2023/06/30 12:09:29;;;;;;;24.90;21.10;;;21.70;71.20;;;;;;6255023;28;20295;-81
2023/06/30 12:12:33;;;;;;;26.43;22.13;;;21.90;70.60;;;;;;6260049;28;20296;-82
2023/06/30 12:15:36;;;;;;;25.50;21.47;;;21.90;69.90;;;;;;6253622;28;20238;-81
2023/06/30 12:18:46;;;;;;;13.53;11.90;;;21.70;70.10;;;;;;6235169;28;20764;-80
2023/06/30 12:21:53;;;;;;;9.33;8.63;;;21.40;69.00;;;;;;6233519;28;20242;-80
2023/06/30 12:29:19;;;;;;;9.43;8.53;;;20.90;69.50;;;;;;6229967;28;20217;-80
2023/06/30 12:32:27;;;;;;;10.17;9.20;;;20.70;70.00;;;;;;6259731;28;20391;-80
2023/06/30 12:35:37;;;;;;;9.33;8.60;;;20.60;70.60;;;;;;6273396;28;20229;-80
2023/06/30 12:38:40;;;;;;;8.67;7.90;;;20.50;70.50;;;;;;6271200;28;20313;-81
2023/06/30 12:41:43;;;;;;;9.03;8.23;;;20.50;70.70;;;;;;6232305;28;20239;-82
2023/06/30 12:44:48;;;;;;;8.47;7.87;;;20.60;70.70;;;;;;6229769;28;21481;-80
2023/06/30 12:47:51;;;;;;;8.83;8.17;;;20.50;70.60;;;;;;6222207;28;20227;-81
2023/06/30 12:50:57;;;;;;;7.53;7.03;;;20.50;71.00;;;;;;6230907;28;20258;-80
2023/06/30 12:54:00;;;;;;;8.13;7.53;;;20.60;70.90;;;;;;6224657;28;20883;-81
2023/06/30 12:57:04;;;;;;;8.03;7.43;;;20.50;71.30;;;;;;6230257;28;20284;-81
2023/06/30 13:00:09;;;;;;;8.70;6.83;;;20.50;71.60;;;;;;6227308;28;20230;-82
2023/06/30 13:03:13;;;;;;;7.87;7.27;;;20.50;71.70;;;;;;6230448;28;20289;-81
2023/06/30 13:06:18;;;;;;;7.30;6.77;;;20.50;71.30;;;;;;6233667;28;20316;-81
2023/06/30 13:09:22;;;;;;;7.50;6.90;;;20.30;71.00;;;;;;6227181;28;20298;-80
2023/06/30 13:12:29;;;;;;;7.23;6.73;;;20.20;71.40;;;;;;6221440;28;20279;-79
2023/06/30 13:15:33;;;;;;;7.50;6.83;;;20.20;71.60;;;;;;6233524;28;20238;-80
2023/06/30 13:18:36;;;;;;;7.53;6.97;;;20.10;71.70;;;;;;6221184;28;20323;-80
2023/06/30 13:21:40;;;;;;;7.37;6.77;;;20.10;71.90;;;;;;6228152;28;20321;-79
2023/06/30 13:24:44;;;;;;;8.43;7.73;;;20.20;72.00;;;;;;6233360;28;20911;-79
2023/06/30 13:27:47;;;;;;;8.97;8.10;;;20.30;71.40;;;;;;6233426;28;20238;-79
2023/06/30 13:30:50;;;;;;;10.10;8.57;;;20.30;71.70;;;;;;6236869;28;20235;-81
2023/06/30 13:33:54;;;;;;;9.60;8.90;;;20.20;71.50;;;;;;6234044;28;20227;-80
2023/06/30 13:36:58;;;;;;;8.47;7.80;;;20.10;72.10;;;;;;6244502;28;20742;-78
2023/06/30 13:40:02;;;;;;;9.10;8.23;;;20.20;71.90;;;;;;6236660;28;20227;-78
2023/06/30 13:43:05;;;;;;;9.50;8.73;;;20.20;71.90;;;;;;6230592;28;20242;-78
2023/06/30 13:46:08;;;;;;;9.50;8.70;;;20.20;71.60;;;;;;6232994;28;20234;-79
2023/06/30 13:49:13;;;;;;;9.90;9.03;;;20.30;71.40;;;;;;6242759;28;20241;-77
2023/06/30 13:52:17;;;;;;;9.20;8.30;;;20.30;71.20;;;;;;6228341;28;20743;-78
2023/06/30 13:55:24;;;;;;;9.97;8.87;;;20.40;71.40;;;;;;6232657;28;20784;-79
2023/06/30 13:58:27;;;;;;;9.07;8.30;;;20.50;71.20;;;;;;6240217;28;20250;-76
2023/06/30 14:01:30;;;;;;;10.37;9.40;;;20.60;71.40;;;;;;6221403;28;20809;-79
2023/06/30 14:04:34;;;;;;;9.57;8.80;;;20.70;71.40;;;;;;6233467;28;20249;-78
2023/06/30 14:07:38;;;;;;;9.33;8.53;;;20.70;70.70;;;;;;6237270;28;20357;-78
2023/06/30 14:10:41;;;;;;;9.03;8.20;;;20.80;70.80;;;;;;6239345;28;20809;-77
2023/06/30 14:13:45;;;;;;;9.40;8.57;;;20.90;70.50;;;;;;6229339;28;20294;-79
2023/06/30 14:16:49;;;;;;;8.90;7.90;;;21.00;70.40;;;;;;6225147;28;20247;-77
2023/06/30 14:19:52;;;;;;;8.47;7.67;;;20.90;70.30;;;;;;6229119;28;20234;-79
2023/06/30 14:22:59;;;;;;;7.77;7.07;;;20.90;70.00;;;;;;6244317;28;20326;-78
2023/06/30 14:26:03;;;;;;;7.57;6.97;;;21.00;69.90;;;;;;6230832;28;20233;-78
2023/06/30 14:29:06;;;;;;;7.20;6.40;;;21.00;69.10;;;;;;6233724;28;20921;-79
2023/06/30 14:32:09;;;;;;;7.37;6.87;;;21.00;69.40;;;;;;6234463;28;20269;-75
2023/06/30 14:35:12;;;;;;;6.50;6.10;;;21.20;69.30;;;;;;6228696;28;20721;-76
2023/06/30 14:38:17;;;;;;;6.83;6.40;;;21.50;68.70;;;;;;6238017;28;20226;-78
2023/06/30 14:41:24;;;;;;;6.30;5.90;;;21.60;68.20;;;;;;6240210;28;20253;-77
2023/06/30 14:44:27;;;;;;;5.67;5.47;;;21.70;67.80;;;;;;6239811;28;20346;-78
2023/06/30 14:47:30;;;;;;;5.97;5.40;;;21.90;66.90;;;;;;6269263;28;20237;-79
2023/06/30 14:50:33;;;;;;;4.77;4.47;;;22.40;65.70;;;;;;6252180;28;20378;-78
2023/06/30 14:53:38;;;;;;;4.10;3.90;;;22.70;63.90;;;;;;6258444;28;20322;-78
2023/06/30 14:56:43;;;;;;;4.57;4.27;;;23.00;63.80;;;;;;6249622;28;20634;-78
2023/06/30 14:59:46;;;;;;;4.60;4.30;;;22.90;62.80;;;;;;6266534;28;20266;-76
2023/06/30 15:02:49;;;;;;;4.07;3.80;;;22.90;62.80;;;;;;6263177;28;20403;-75
2023/06/30 15:05:52;;;;;;;4.30;4.10;;;22.70;62.80;;;;;;6246026;28;20738;-75
2023/06/30 15:08:57;;;;;;;3.67;3.57;;;22.60;62.90;;;;;;6252243;28;20308;-76
2023/06/30 15:12:00;;;;;;;3.80;3.60;;;22.80;63.00;;;;;;6261874;28;20787;-75
2023/06/30 15:15:04;;;;;;;3.90;3.77;;;22.90;63.40;;;;;;6263619;28;20238;-75
2023/06/30 15:18:07;;;;;;;3.90;3.70;;;23.10;62.30;;;;;;6262640;28;20593;-77
2023/06/30 15:21:11;;;;;;;3.43;3.30;;;23.10;62.20;;;;;;6253422;28;20858;-76
2023/06/30 15:24:15;;;;;;;3.23;3.17;;;23.10;61.70;;;;;;6238606;28;20235;-77
2023/06/30 15:27:18;;;;;;;3.60;3.50;;;22.80;61.70;;;;;;6229309;28;20297;-77
2023/06/30 15:30:22;;;;;;;3.90;3.60;;;22.60;62.30;;;;;;6229936;28;20266;-76
2023/06/30 15:33:26;;;;;;;3.93;3.67;;;22.30;63.80;;;;;;6220850;28;20388;-76
2023/06/30 15:36:29;;;;;;;3.47;3.37;;;21.90;65.20;;;;;;6224162;28;20236;-80
2023/06/30 15:39:34;;;;;;;4.20;3.87;;;21.40;66.50;;;;;;6231091;28;20238;-77
2023/06/30 15:42:39;;;;;;;3.57;3.33;;;21.00;67.40;;;;;;6224545;28;20332;-79
2023/06/30 15:45:42;;;;;;;3.37;3.27;;;20.50;68.20;;;;;;6229337;28;20277;-80